Girolata — FPOD — position and weather

sailwx.info

Track history (hours):
 
Tides and Currents Weather Stations Pressure Air Temp Water Temp Dewpoint Dewpoint Depression Visibility Wind Speed Wind Dir Waves Ship Positions

Girolata

Last reported at 2019-Aug-20 09:09 UTC. Time now 2019-Aug-20 09:32 UTC.
Position N 41°56' E 008°45'.

Length 177 m; beam 27 m.

Type: Ship. MMSI: 226245000.

Date/timePositionNaut miles runAvg speedWind from/ knotsBaromVisibWave heightAir tempDewpointWater temp
2019-Aug-20 09:09N 41°56' E 008°45'0 0.0
2019-Aug-20 09:00N 41°56' E 008°45'0 0.0
2019-Aug-20 07:00N 41°56' E 008°45'0 0.0
2019-Aug-20 06:24N 41°56' E 008°45'0 0.0
2019-Aug-20 06:00N 41°56' E 008°45'0 0.0
2019-Aug-20 05:30N 41°56' E 008°45'0 0.0
2019-Aug-20 04:54N 41°56' E 008°45'0 0.0
2019-Aug-20 04:13N 41°56' E 008°45'4 7.5
2019-Aug-20 03:41N 41°52' E 008°42'317.3
2019-Aug-20 03:30N 41°50' E 008°39'816.3
2019-Aug-20 03:00N 41°50' E 008°28'917.4
2019-Aug-20 02:30N 41°54' E 008°18'917.4
2019-Aug-20 02:00N 41°59' E 008°07'917.6
2019-Aug-20 01:30N 42°03' E 007°57'917.7
2019-Aug-20 01:00N 42°07' E 007°47'917.7
2019-Aug-20 00:30N 42°11' E 007°36'917.7
2019-Aug-20 00:00N 42°16' E 007°26'917.6
2019-Aug-19 23:30N 42°20' E 007°16'917.6
2019-Aug-19 23:00N 42°25' E 007°05'917.8
2019-Aug-19 22:30N 42°29' E 006°55'917.9
2019-Aug-19 22:00N 42°34' E 006°44'918.0
2019-Aug-19 21:30N 42°38' E 006°34'918.2
2019-Aug-19 21:00N 42°43' E 006°23'2618.0
2019-Aug-19 19:35N 42°56' E 005°53'118.0
2019-Aug-19 19:30N 42°56' E 005°51'13 0.8
2019-Aug-19 02:53N 43°02' E 005°36'617.1
2019-Aug-19 02:30N 42°58' E 005°43'1017.2
2019-Aug-19 01:54N 42°53' E 005°55'1017.1
2019-Aug-19 01:20N 42°48' E 006°07'617.1
2019-Aug-19 00:57N 42°44' E 006°14'917.3
2019-Aug-19 00:26N 42°41' E 006°25'717.0
2019-Aug-19 00:00N 42°38' E 006°34'816.7
2019-Aug-18 23:30N 42°33' E 006°44'816.4
2019-Aug-18 23:00N 42°30' E 006°54'816.5
2019-Aug-18 22:30N 42°26' E 007°04'816.5
2019-Aug-18 22:00N 42°22' E 007°14'816.4
2019-Aug-18 21:30N 42°18' E 007°23'816.5
2019-Aug-18 21:00N 42°14' E 007°33'816.5
2019-Aug-18 20:30N 42°10' E 007°43'816.6
2019-Aug-18 20:00N 42°06' E 007°53'816.7
2019-Aug-18 19:31N 42°02' E 008°02'816.6
2019-Aug-18 19:00N 41°58' E 008°12'816.7
2019-Aug-18 18:30N 41°53' E 008°22'816.7
2019-Aug-18 18:00N 41°49' E 008°32'815.4
2019-Aug-18 17:30N 41°51' E 008°42'5 6.5
2019-Aug-18 16:49N 41°56' E 008°45'0 0.0
2019-Aug-18 16:25N 41°56' E 008°45'0 0.0
2019-Aug-18 15:49N 41°56' E 008°45'0 0.0
2019-Aug-18 15:25N 41°56' E 008°45'0 0.0
2019-Aug-18 14:55N 41°56' E 008°45'0 0.0
2019-Aug-18 14:07N 41°56' E 008°45'0 0.0
2019-Aug-18 05:35N 41°56' E 008°45'6 7.7
2019-Aug-18 04:50N 41°51' E 008°40'516.2
2019-Aug-18 04:31N 41°49' E 008°33'816.7
2019-Aug-18 04:01N 41°52' E 008°23'816.9
2019-Aug-18 03:30N 41°56' E 008°13'815.9
2019-Aug-18 03:01N 41°60' E 008°03'815.4
2019-Aug-18 02:30N 42°03' E 007°54'815.3
2019-Aug-18 01:58N 42°07' E 007°44'714.8
2019-Aug-18 01:31N 42°11' E 007°37'715.0
2019-Aug-18 01:00N 42°16' E 007°29'714.9
2019-Aug-18 00:31N 42°20' E 007°21'714.9
2019-Aug-18 00:00N 42°24' E 007°12'814.9
2019-Aug-17 23:28N 42°28' E 007°03'715.0
2019-Aug-17 23:00N 42°31' E 006°55'815.2
2019-Aug-17 22:31N 42°34' E 006°45'815.3
2019-Aug-17 21:59N 42°38' E 006°35'715.4
2019-Aug-17 21:31N 42°41' E 006°27'815.5
2019-Aug-17 21:00N 42°45' E 006°17'815.6
2019-Aug-17 20:31N 42°49' E 006°08'815.8
2019-Aug-17 20:00N 42°53' E 005°59'915.9
2019-Aug-17 19:25N 42°58' E 005°48'2812.9
2019-Aug-17 17:15N 43°18' E 005°21'1 0.5
2019-Aug-17 15:16N 43°19' E 005°22'0 0.0
2019-Aug-17 14:58N 43°19' E 005°22'0 0.0
2019-Aug-17 14:28N 43°19' E 005°22'0 0.0
2019-Aug-17 13:52N 43°19' E 005°22'0 0.0
2019-Aug-17 13:22N 43°19' E 005°22'0 0.0
2019-Aug-17 12:49N 43°19' E 005°22'0 0.0
2019-Aug-17 11:34N 43°19' E 005°22'0 0.0
2019-Aug-17 11:16N 43°19' E 005°22'0 0.0
2019-Aug-17 10:58N 43°19' E 005°22'0 0.0
2019-Aug-17 08:40N 43°19' E 005°22'0 0.0
2019-Aug-17 08:28N 43°19' E 005°22'0 0.0
2019-Aug-17 06:58N 43°19' E 005°22'2 0.8
2019-Aug-17 04:19N 43°17' E 005°20'712.5
2019-Aug-17 03:43N 43°10' E 005°21'416.1
2019-Aug-17 03:30N 43°08' E 005°25'1916.7
2019-Aug-17 02:21N 42°58' E 005°48'716.9
2019-Aug-17 01:55N 42°54' E 005°56'716.7
2019-Aug-17 01:30N 42°51' E 006°05'816.8
2019-Aug-17 01:00N 42°47' E 006°15'816.6
2019-Aug-17 00:30N 42°44' E 006°25'1416.6
2019-Aug-16 23:40N 42°37' E 006°42'416.6
2019-Aug-16 23:25N 42°35' E 006°47'716.7
2019-Aug-16 22:58N 42°31' E 006°55'816.6
2019-Aug-16 22:30N 42°26' E 007°03'916.7
2019-Aug-16 22:00N 42°22' E 007°14'816.7
2019-Aug-16 21:30N 42°18' E 007°23'916.9
2019-Aug-16 21:00N 42°14' E 007°33'1116.9
2019-Aug-16 20:21N 42°08' E 007°46'716.8
2019-Aug-16 19:56N 42°05' E 007°54'716.7
2019-Aug-16 19:30N 42°02' E 008°03'816.3
2019-Aug-16 19:00N 41°57' E 008°12'916.5
2019-Aug-16 18:29N 41°53' E 008°22'816.5
2019-Aug-16 18:00N 41°49' E 008°32'1015.6
2019-Aug-16 17:20N 41°53' E 008°45'2 5.4
2019-Aug-16 16:53N 41°56' E 008°45'0 0.0
2019-Aug-16 16:29N 41°56' E 008°45'0 0.0
2019-Aug-16 15:53N 41°56' E 008°45'0 0.0
2019-Aug-16 15:29N 41°56' E 008°45'0 0.0
2019-Aug-16 14:59N 41°56' E 008°45'0 0.0
2019-Aug-16 14:29N 41°56' E 008°45'0 0.0
2019-Aug-16 13:56N 41°56' E 008°45'0 0.0
2019-Aug-16 13:23N 41°56' E 008°45'0 0.0
2019-Aug-16 05:33N 41°56' E 008°45'5 5.7
2019-Aug-16 04:41N 41°51' E 008°41'616.5
2019-Aug-16 04:20N 41°49' E 008°34'616.1
2019-Aug-16 03:58N 41°52' E 008°26'916.3
2019-Aug-16 03:24N 41°56' E 008°16'716.3
2019-Aug-16 02:57N 41°60' E 008°07'716.3
2019-Aug-16 02:30N 42°03' E 007°58'816.3
2019-Aug-16 01:59N 42°07' E 007°48'816.4
2019-Aug-16 01:30N 42°11' E 007°39'1016.5
2019-Aug-16 00:53N 42°16' E 007°27'716.4
2019-Aug-16 00:27N 42°20' E 007°19'816.2
2019-Aug-15 23:56N 42°24' E 007°09'716.1
2019-Aug-15 23:30N 42°28' E 007°01'816.1
2019-Aug-15 22:58N 42°31' E 006°51'816.1
2019-Aug-15 22:30N 42°35' E 006°42'815.7
2019-Aug-15 22:00N 42°39' E 006°32'815.5
2019-Aug-15 21:30N 42°43' E 006°23'815.1
2019-Aug-15 21:00N 42°46' E 006°14'24 1.3
2019-Aug-15 03:23N 42°58' E 005°46'615.2
2019-Aug-15 02:59N 42°56' E 005°54'715.4
2019-Aug-15 02:30N 42°52' E 006°03'815.8
2019-Aug-15 02:00N 42°48' E 006°12'815.9
2019-Aug-15 01:30N 42°44' E 006°21'815.6
2019-Aug-15 00:58N 42°40' E 006°31'715.7
2019-Aug-15 00:30N 42°36' E 006°40'815.4
2019-Aug-15 00:00N 42°32' E 006°49'714.9
2019-Aug-14 23:30N 42°29' E 006°58'714.9
2019-Aug-14 23:00N 42°25' E 007°06'714.7
2019-Aug-14 22:30N 42°22' E 007°15'714.3
2019-Aug-14 22:00N 42°18' E 007°24'914.2
2019-Aug-14 21:24N 42°14' E 007°34'714.3
2019-Aug-14 20:55N 42°10' E 007°42'614.3
2019-Aug-14 20:29N 42°07' E 007°49'714.3
2019-Aug-14 20:00N 42°04' E 007°57'714.2
2019-Aug-14 19:30N 42°00' E 008°06'714.1
2019-Aug-14 18:59N 41°57' E 008°14'713.9
2019-Aug-14 18:30N 41°54' E 008°22'713.8
2019-Aug-14 18:00N 41°50' E 008°30'713.2
2019-Aug-14 17:30N 41°50' E 008°39'713.6
2019-Aug-14 17:00N 41°55' E 008°45'1 0.8
2019-Aug-14 16:06N 41°56' E 008°45'0 0.0
2019-Aug-14 16:00N 41°56' E 008°45'0 0.0
2019-Aug-14 15:30N 41°56' E 008°45'0 0.0
2019-Aug-14 15:00N 41°56' E 008°45'0 0.0
2019-Aug-14 14:24N 41°56' E 008°45'0 0.0
2019-Aug-14 14:00N 41°56' E 008°45'0 0.0
2019-Aug-14 13:30N 41°56' E 008°45'0 0.0
2019-Aug-14 13:00N 41°56' E 008°45'0 0.0
2019-Aug-14 12:30N 41°56' E 008°45'0 0.0
2019-Aug-14 12:00N 41°56' E 008°45'0 0.0
2019-Aug-14 11:27N 41°56' E 008°45'0 0.0
2019-Aug-14 11:00N 41°56' E 008°45'0 0.0
2019-Aug-14 10:30N 41°56' E 008°45'0 0.0
2019-Aug-14 09:57N 41°56' E 008°45'0 0.0
2019-Aug-14 09:30N 41°56' E 008°45'0 0.0
2019-Aug-14 09:00N 41°56' E 008°45'0 0.0
2019-Aug-14 08:30N 41°56' E 008°45'100 3.1
2019-Aug-12 23:36N 42°37' E 006°41'217.2
2019-Aug-12 23:30N 42°36' E 006°43'917.3
2019-Aug-12 23:00N 42°32' E 006°54'816.9
2019-Aug-12 22:30N 42°28' E 007°03'916.9
2019-Aug-12 22:00N 42°22' E 007°12'817.1
2019-Aug-12 21:30N 42°18' E 007°22'917.2
2019-Aug-12 21:00N 42°14' E 007°33'1116.8
2019-Aug-12 20:20N 42°09' E 007°46'616.5
2019-Aug-12 20:00N 42°06' E 007°52'816.9
2019-Aug-12 19:30N 42°02' E 008°02'817.0
2019-Aug-12 19:00N 41°58' E 008°12'917.2
2019-Aug-12 18:30N 41°53' E 008°22'816.6
2019-Aug-12 18:00N 41°50' E 008°32'816.0
2019-Aug-12 17:30N 41°52' E 008°42'4 7.7
2019-Aug-12 16:59N 41°56' E 008°45'0 0.0
2019-Aug-12 16:29N 41°56' E 008°45'0 0.0
2019-Aug-12 15:59N 41°56' E 008°45'0 0.0
2019-Aug-12 15:29N 41°56' E 008°45'0 0.0
2019-Aug-12 14:59N 41°56' E 008°45'0 0.0
2019-Aug-12 14:29N 41°56' E 008°45'0 0.0
2019-Aug-12 13:59N 41°56' E 008°45'0 0.0
2019-Aug-12 13:29N 41°56' E 008°45'0 0.0
2019-Aug-12 12:59N 41°56' E 008°45'0 0.0
2019-Aug-12 12:29N 41°56' E 008°45'0 0.0
2019-Aug-12 11:59N 41°56' E 008°45'0 0.0
2019-Aug-12 11:29N 41°56' E 008°45'0 0.0
2019-Aug-12 10:47N 41°56' E 008°45'0 0.0
2019-Aug-12 10:26N 41°56' E 008°45'0 0.0
2019-Aug-12 09:56N 41°56' E 008°45'0 0.0
2019-Aug-12 08:38N 41°56' E 008°45'0 0.0
2019-Aug-12 08:23N 41°56' E 008°45'0 0.0
2019-Aug-12 07:38N 41°56' E 008°45'0 0.0
2019-Aug-12 07:29N 41°56' E 008°45'0 0.0
2019-Aug-12 06:47N 41°56' E 008°45'0 0.0
2019-Aug-12 06:29N 41°56' E 008°45'0 0.0
2019-Aug-12 05:56N 41°56' E 008°45'0 0.0
2019-Aug-12 05:29N 41°56' E 008°45'0 0.0
2019-Aug-12 04:58N 41°56' E 008°45'0 0.4
2019-Aug-12 04:30N 41°55' E 008°45'713.2
2019-Aug-12 04:00N 41°50' E 008°39'815.7
2019-Aug-12 03:30N 41°50' E 008°28'917.0
2019-Aug-12 03:00N 41°55' E 008°19'917.0
2019-Aug-12 02:30N 41°59' E 008°08'917.1
2019-Aug-12 02:00N 42°03' E 007°58'917.4
2019-Aug-12 01:30N 42°07' E 007°48'917.9
2019-Aug-12 01:00N 42°11' E 007°37'918.0
2019-Aug-12 00:30N 42°15' E 007°26'918.0
2019-Aug-12 00:00N 42°20' E 007°16'918.2
2019-Aug-11 23:30N 42°25' E 007°05'918.3
2019-Aug-11 23:00N 42°29' E 006°55'918.2
2019-Aug-11 22:30N 42°34' E 006°44'918.3
2019-Aug-11 22:00N 42°39' E 006°34'918.3
2019-Aug-11 21:30N 42°43' E 006°23'1218.0
2019-Aug-11 20:51N 42°49' E 006°09'1717.3
2019-Aug-11 19:54N 42°59' E 005°51'10 9.2
2019-Aug-11 18:52N 43°02' E 005°39'21 2.7
2019-Aug-11 11:13N 43°19' E 005°22'0 0.0
2019-Aug-11 10:59N 43°19' E 005°22'0 0.0
2019-Aug-11 10:30N 43°19' E 005°22'0 0.0
2019-Aug-11 10:00N 43°19' E 005°22'0 0.0
2019-Aug-11 09:30N 43°19' E 005°22'0 0.0
2019-Aug-11 09:00N 43°19' E 005°22'0 0.0
2019-Aug-11 08:30N 43°19' E 005°22'0 0.0
2019-Aug-11 08:00N 43°19' E 005°22'0 0.0
2019-Aug-11 07:18N 43°19' E 005°22'0 0.0
2019-Aug-11 06:40N 43°19' E 005°22'24 7.0
2019-Aug-11 03:13N 42°60' E 005°42'615.9
2019-Aug-11 02:51N 42°57' E 005°49'2616.3
2019-Aug-11 01:16N 42°43' E 006°19'816.0
2019-Aug-11 00:45N 42°39' E 006°28'416.1
2019-Aug-11 00:31N 42°37' E 006°33'816.2
2019-Aug-11 00:01N 42°32' E 006°42'815.8
2019-Aug-10 23:30N 42°29' E 006°52'815.7
2019-Aug-10 23:00N 42°28' E 007°02'815.3
2019-Aug-10 22:30N 42°25' E 007°12'815.6
2019-Aug-10 22:00N 42°21' E 007°21'815.4
2019-Aug-10 21:31N 42°16' E 007°29'816.0
2019-Aug-10 21:01N 42°12' E 007°38'816.0
2019-Aug-10 20:30N 42°08' E 007°48'815.6
2019-Aug-10 20:00N 42°04' E 007°57'815.4
2019-Aug-10 19:30N 42°01' E 008°06'815.5
2019-Aug-10 19:00N 41°57' E 008°15'815.5
2019-Aug-10 18:30N 41°53' E 008°24'815.3
2019-Aug-10 18:00N 41°49' E 008°33'714.7
2019-Aug-10 17:30N 41°52' E 008°42'4 3.5
2019-Aug-10 16:20N 41°56' E 008°45'0 0.0
2019-Aug-10 15:26N 41°56' E 008°45'0 0.0
2019-Aug-10 14:59N 41°56' E 008°45'0 0.0
2019-Aug-10 13:47N 41°56' E 008°45'0 0.0
2019-Aug-10 13:29N 41°56' E 008°45'0 0.0
2019-Aug-10 12:59N 41°56' E 008°45'0 0.0
2019-Aug-10 12:29N 41°56' E 008°45'0 0.0
2019-Aug-10 11:59N 41°56' E 008°45'0 0.0
2019-Aug-10 11:29N 41°56' E 008°45'0 0.0
2019-Aug-10 10:02N 41°56' E 008°45'0 0.0
2019-Aug-10 09:56N 41°56' E 008°45'0 0.0
2019-Aug-10 09:20N 41°56' E 008°45'  
Track history (hours):
 
Tides and Currents Weather Stations Pressure Air Temp Water Temp Dewpoint Dewpoint Depression Visibility Wind Speed Wind Dir Waves Ship Positions

Girolata

Last reported at 2019-Aug-20 09:09 UTC. Time now 2019-Aug-20 09:32 UTC.
Position N 41°56' E 008°45'.

Length 177 m; beam 27 m.

Type: Ship. MMSI: 226245000.

Date/timePositionNaut miles runAvg speedWind from/ knotsBaromVisibWave heightAir tempDewpointWater temp
2019-Aug-20 09:09N 41°56' E 008°45'0 0.0
2019-Aug-20 09:00N 41°56' E 008°45'0 0.0
2019-Aug-20 07:00N 41°56' E 008°45'0 0.0
2019-Aug-20 06:24N 41°56' E 008°45'0 0.0
2019-Aug-20 06:00N 41°56' E 008°45'0 0.0
2019-Aug-20 05:30N 41°56' E 008°45'0 0.0
2019-Aug-20 04:54N 41°56' E 008°45'0 0.0
2019-Aug-20 04:13N 41°56' E 008°45'4 7.5
2019-Aug-20 03:41N 41°52' E 008°42'317.3
2019-Aug-20 03:30N 41°50' E 008°39'816.3
2019-Aug-20 03:00N 41°50' E 008°28'917.4
2019-Aug-20 02:30N 41°54' E 008°18'917.4
2019-Aug-20 02:00N 41°59' E 008°07'917.6
2019-Aug-20 01:30N 42°03' E 007°57'917.7
2019-Aug-20 01:00N 42°07' E 007°47'917.7
2019-Aug-20 00:30N 42°11' E 007°36'917.7
2019-Aug-20 00:00N 42°16' E 007°26'917.6
2019-Aug-19 23:30N 42°20' E 007°16'917.6
2019-Aug-19 23:00N 42°25' E 007°05'917.8
2019-Aug-19 22:30N 42°29' E 006°55'917.9
2019-Aug-19 22:00N 42°34' E 006°44'918.0
2019-Aug-19 21:30N 42°38' E 006°34'918.2
2019-Aug-19 21:00N 42°43' E 006°23'2618.0
2019-Aug-19 19:35N 42°56' E 005°53'118.0
2019-Aug-19 19:30N 42°56' E 005°51'13 0.8
2019-Aug-19 02:53N 43°02' E 005°36'617.1
2019-Aug-19 02:30N 42°58' E 005°43'1017.2
2019-Aug-19 01:54N 42°53' E 005°55'1017.1
2019-Aug-19 01:20N 42°48' E 006°07'617.1
2019-Aug-19 00:57N 42°44' E 006°14'917.3
2019-Aug-19 00:26N 42°41' E 006°25'717.0
2019-Aug-19 00:00N 42°38' E 006°34'816.7
2019-Aug-18 23:30N 42°33' E 006°44'816.4
2019-Aug-18 23:00N 42°30' E 006°54'816.5
2019-Aug-18 22:30N 42°26' E 007°04'816.5
2019-Aug-18 22:00N 42°22' E 007°14'816.4
2019-Aug-18 21:30N 42°18' E 007°23'816.5
2019-Aug-18 21:00N 42°14' E 007°33'816.5
2019-Aug-18 20:30N 42°10' E 007°43'816.6
2019-Aug-18 20:00N 42°06' E 007°53'816.7
2019-Aug-18 19:31N 42°02' E 008°02'816.6
2019-Aug-18 19:00N 41°58' E 008°12'816.7
2019-Aug-18 18:30N 41°53' E 008°22'816.7
2019-Aug-18 18:00N 41°49' E 008°32'815.4
2019-Aug-18 17:30N 41°51' E 008°42'5 6.5
2019-Aug-18 16:49N 41°56' E 008°45'0 0.0
2019-Aug-18 16:25N 41°56' E 008°45'0 0.0
2019-Aug-18 15:49N 41°56' E 008°45'0 0.0
2019-Aug-18 15:25N 41°56' E 008°45'0 0.0
2019-Aug-18 14:55N 41°56' E 008°45'0 0.0
2019-Aug-18 14:07N 41°56' E 008°45'0 0.0
2019-Aug-18 05:35N 41°56' E 008°45'6 7.7
2019-Aug-18 04:50N 41°51' E 008°40'516.2
2019-Aug-18 04:31N 41°49' E 008°33'816.7
2019-Aug-18 04:01N 41°52' E 008°23'816.9
2019-Aug-18 03:30N 41°56' E 008°13'815.9
2019-Aug-18 03:01N 41°60' E 008°03'815.4
2019-Aug-18 02:30N 42°03' E 007°54'815.3
2019-Aug-18 01:58N 42°07' E 007°44'714.8
2019-Aug-18 01:31N 42°11' E 007°37'715.0
2019-Aug-18 01:00N 42°16' E 007°29'714.9
2019-Aug-18 00:31N 42°20' E 007°21'714.9
2019-Aug-18 00:00N 42°24' E 007°12'814.9
2019-Aug-17 23:28N 42°28' E 007°03'715.0
2019-Aug-17 23:00N 42°31' E 006°55'815.2
2019-Aug-17 22:31N 42°34' E 006°45'815.3
2019-Aug-17 21:59N 42°38' E 006°35'715.4
2019-Aug-17 21:31N 42°41' E 006°27'815.5
2019-Aug-17 21:00N 42°45' E 006°17'815.6
2019-Aug-17 20:31N 42°49' E 006°08'815.8
2019-Aug-17 20:00N 42°53' E 005°59'915.9
2019-Aug-17 19:25N 42°58' E 005°48'2812.9
2019-Aug-17 17:15N 43°18' E 005°21'1 0.5
2019-Aug-17 15:16N 43°19' E 005°22'0 0.0
2019-Aug-17 14:58N 43°19' E 005°22'0 0.0
2019-Aug-17 14:28N 43°19' E 005°22'0 0.0
2019-Aug-17 13:52N 43°19' E 005°22'0 0.0
2019-Aug-17 13:22N 43°19' E 005°22'0 0.0
2019-Aug-17 12:49N 43°19' E 005°22'0 0.0
2019-Aug-17 11:34N 43°19' E 005°22'0 0.0
2019-Aug-17 11:16N 43°19' E 005°22'0 0.0
2019-Aug-17 10:58N 43°19' E 005°22'0 0.0
2019-Aug-17 08:40N 43°19' E 005°22'0 0.0
2019-Aug-17 08:28N 43°19' E 005°22'0 0.0
2019-Aug-17 06:58N 43°19' E 005°22'2 0.8
2019-Aug-17 04:19N 43°17' E 005°20'712.5
2019-Aug-17 03:43N 43°10' E 005°21'416.1
2019-Aug-17 03:30N 43°08' E 005°25'1916.7
2019-Aug-17 02:21N 42°58' E 005°48'716.9
2019-Aug-17 01:55N 42°54' E 005°56'716.7
2019-Aug-17 01:30N 42°51' E 006°05'816.8
2019-Aug-17 01:00N 42°47' E 006°15'816.6
2019-Aug-17 00:30N 42°44' E 006°25'1416.6
2019-Aug-16 23:40N 42°37' E 006°42'416.6
2019-Aug-16 23:25N 42°35' E 006°47'716.7
2019-Aug-16 22:58N 42°31' E 006°55'816.6
2019-Aug-16 22:30N 42°26' E 007°03'916.7
2019-Aug-16 22:00N 42°22' E 007°14'816.7
2019-Aug-16 21:30N 42°18' E 007°23'916.9
2019-Aug-16 21:00N 42°14' E 007°33'1116.9
2019-Aug-16 20:21N 42°08' E 007°46'716.8
2019-Aug-16 19:56N 42°05' E 007°54'716.7
2019-Aug-16 19:30N 42°02' E 008°03'816.3
2019-Aug-16 19:00N 41°57' E 008°12'916.5
2019-Aug-16 18:29N 41°53' E 008°22'816.5
2019-Aug-16 18:00N 41°49' E 008°32'1015.6
2019-Aug-16 17:20N 41°53' E 008°45'2 5.4
2019-Aug-16 16:53N 41°56' E 008°45'0 0.0
2019-Aug-16 16:29N 41°56' E 008°45'0 0.0
2019-Aug-16 15:53N 41°56' E 008°45'0 0.0
2019-Aug-16 15:29N 41°56' E 008°45'0 0.0
2019-Aug-16 14:59N 41°56' E 008°45'0 0.0
2019-Aug-16 14:29N 41°56' E 008°45'0 0.0
2019-Aug-16 13:56N 41°56' E 008°45'0 0.0
2019-Aug-16 13:23N 41°56' E 008°45'0 0.0
2019-Aug-16 05:33N 41°56' E 008°45'5 5.7
2019-Aug-16 04:41N 41°51' E 008°41'616.5
2019-Aug-16 04:20N 41°49' E 008°34'616.1
2019-Aug-16 03:58N 41°52' E 008°26'916.3
2019-Aug-16 03:24N 41°56' E 008°16'716.3
2019-Aug-16 02:57N 41°60' E 008°07'716.3
2019-Aug-16 02:30N 42°03' E 007°58'816.3
2019-Aug-16 01:59N 42°07' E 007°48'816.4
2019-Aug-16 01:30N 42°11' E 007°39'1016.5
2019-Aug-16 00:53N 42°16' E 007°27'716.4
2019-Aug-16 00:27N 42°20' E 007°19'816.2
2019-Aug-15 23:56N 42°24' E 007°09'716.1
2019-Aug-15 23:30N 42°28' E 007°01'816.1
2019-Aug-15 22:58N 42°31' E 006°51'816.1
2019-Aug-15 22:30N 42°35' E 006°42'815.7
2019-Aug-15 22:00N 42°39' E 006°32'815.5
2019-Aug-15 21:30N 42°43' E 006°23'815.1
2019-Aug-15 21:00N 42°46' E 006°14'24 1.3
2019-Aug-15 03:23N 42°58' E 005°46'615.2
2019-Aug-15 02:59N 42°56' E 005°54'715.4
2019-Aug-15 02:30N 42°52' E 006°03'815.8
2019-Aug-15 02:00N 42°48' E 006°12'815.9
2019-Aug-15 01:30N 42°44' E 006°21'815.6
2019-Aug-15 00:58N 42°40' E 006°31'715.7
2019-Aug-15 00:30N 42°36' E 006°40'815.4
2019-Aug-15 00:00N 42°32' E 006°49'714.9
2019-Aug-14 23:30N 42°29' E 006°58'714.9
2019-Aug-14 23:00N 42°25' E 007°06'714.7
2019-Aug-14 22:30N 42°22' E 007°15'714.3
2019-Aug-14 22:00N 42°18' E 007°24'914.2
2019-Aug-14 21:24N 42°14' E 007°34'714.3
2019-Aug-14 20:55N 42°10' E 007°42'614.3
2019-Aug-14 20:29N 42°07' E 007°49'714.3
2019-Aug-14 20:00N 42°04' E 007°57'714.2
2019-Aug-14 19:30N 42°00' E 008°06'714.1
2019-Aug-14 18:59N 41°57' E 008°14'713.9
2019-Aug-14 18:30N 41°54' E 008°22'713.8
2019-Aug-14 18:00N 41°50' E 008°30'713.2
2019-Aug-14 17:30N 41°50' E 008°39'713.6
2019-Aug-14 17:00N 41°55' E 008°45'1 0.8
2019-Aug-14 16:06N 41°56' E 008°45'0 0.0
2019-Aug-14 16:00N 41°56' E 008°45'0 0.0
2019-Aug-14 15:30N 41°56' E 008°45'0 0.0
2019-Aug-14 15:00N 41°56' E 008°45'0 0.0
2019-Aug-14 14:24N 41°56' E 008°45'0 0.0
2019-Aug-14 14:00N 41°56' E 008°45'0 0.0
2019-Aug-14 13:30N 41°56' E 008°45'0 0.0
2019-Aug-14 13:00N 41°56' E 008°45'0 0.0
2019-Aug-14 12:30N 41°56' E 008°45'0 0.0
2019-Aug-14 12:00N 41°56' E 008°45'0 0.0
2019-Aug-14 11:27N 41°56' E 008°45'0 0.0
2019-Aug-14 11:00N 41°56' E 008°45'0 0.0
2019-Aug-14 10:30N 41°56' E 008°45'0 0.0
2019-Aug-14 09:57N 41°56' E 008°45'0 0.0
2019-Aug-14 09:30N 41°56' E 008°45'0 0.0
2019-Aug-14 09:00N 41°56' E 008°45'0 0.0
2019-Aug-14 08:30N 41°56' E 008°45'100 3.1
2019-Aug-12 23:36N 42°37' E 006°41'217.2
2019-Aug-12 23:30N 42°36' E 006°43'917.3
2019-Aug-12 23:00N 42°32' E 006°54'816.9
2019-Aug-12 22:30N 42°28' E 007°03'916.9
2019-Aug-12 22:00N 42°22' E 007°12'817.1
2019-Aug-12 21:30N 42°18' E 007°22'917.2
2019-Aug-12 21:00N 42°14' E 007°33'1116.8
2019-Aug-12 20:20N 42°09' E 007°46'616.5
2019-Aug-12 20:00N 42°06' E 007°52'816.9
2019-Aug-12 19:30N 42°02' E 008°02'817.0
2019-Aug-12 19:00N 41°58' E 008°12'917.2
2019-Aug-12 18:30N 41°53' E 008°22'816.6
2019-Aug-12 18:00N 41°50' E 008°32'816.0
2019-Aug-12 17:30N 41°52' E 008°42'4 7.7
2019-Aug-12 16:59N 41°56' E 008°45'0 0.0
2019-Aug-12 16:29N 41°56' E 008°45'0 0.0
2019-Aug-12 15:59N 41°56' E 008°45'0 0.0
2019-Aug-12 15:29N 41°56' E 008°45'0 0.0
2019-Aug-12 14:59N 41°56' E 008°45'0 0.0
2019-Aug-12 14:29N 41°56' E 008°45'0 0.0
2019-Aug-12 13:59N 41°56' E 008°45'0 0.0
2019-Aug-12 13:29N 41°56' E 008°45'0 0.0
2019-Aug-12 12:59N 41°56' E 008°45'0 0.0
2019-Aug-12 12:29N 41°56' E 008°45'0 0.0
2019-Aug-12 11:59N 41°56' E 008°45'0 0.0
2019-Aug-12 11:29N 41°56' E 008°45'0 0.0
2019-Aug-12 10:47N 41°56' E 008°45'0 0.0
2019-Aug-12 10:26N 41°56' E 008°45'0 0.0
2019-Aug-12 09:56N 41°56' E 008°45'0 0.0
2019-Aug-12 08:38N 41°56' E 008°45'0 0.0
2019-Aug-12 08:23N 41°56' E 008°45'0 0.0
2019-Aug-12 07:38N 41°56' E 008°45'0 0.0
2019-Aug-12 07:29N 41°56' E 008°45'0 0.0
2019-Aug-12 06:47N 41°56' E 008°45'0 0.0
2019-Aug-12 06:29N 41°56' E 008°45'0 0.0
2019-Aug-12 05:56N 41°56' E 008°45'0 0.0
2019-Aug-12 05:29N 41°56' E 008°45'0 0.0
2019-Aug-12 04:58N 41°56' E 008°45'0 0.4
2019-Aug-12 04:30N 41°55' E 008°45'713.2
2019-Aug-12 04:00N 41°50' E 008°39'815.7
2019-Aug-12 03:30N 41°50' E 008°28'917.0
2019-Aug-12 03:00N 41°55' E 008°19'917.0
2019-Aug-12 02:30N 41°59' E 008°08'917.1
2019-Aug-12 02:00N 42°03' E 007°58'917.4
2019-Aug-12 01:30N 42°07' E 007°48'917.9
2019-Aug-12 01:00N 42°11' E 007°37'918.0
2019-Aug-12 00:30N 42°15' E 007°26'918.0
2019-Aug-12 00:00N 42°20' E 007°16'918.2
2019-Aug-11 23:30N 42°25' E 007°05'918.3
2019-Aug-11 23:00N 42°29' E 006°55'918.2
2019-Aug-11 22:30N 42°34' E 006°44'918.3
2019-Aug-11 22:00N 42°39' E 006°34'918.3
2019-Aug-11 21:30N 42°43' E 006°23'1218.0
2019-Aug-11 20:51N 42°49' E 006°09'1717.3
2019-Aug-11 19:54N 42°59' E 005°51'10 9.2
2019-Aug-11 18:52N 43°02' E 005°39'21 2.7
2019-Aug-11 11:13N 43°19' E 005°22'0 0.0
2019-Aug-11 10:59N 43°19' E 005°22'0 0.0
2019-Aug-11 10:30N 43°19' E 005°22'0 0.0
2019-Aug-11 10:00N 43°19' E 005°22'0 0.0
2019-Aug-11 09:30N 43°19' E 005°22'0 0.0
2019-Aug-11 09:00N 43°19' E 005°22'0 0.0
2019-Aug-11 08:30N 43°19' E 005°22'0 0.0
2019-Aug-11 08:00N 43°19' E 005°22'0 0.0
2019-Aug-11 07:18N 43°19' E 005°22'0 0.0
2019-Aug-11 06:40N 43°19' E 005°22'24 7.0
2019-Aug-11 03:13N 42°60' E 005°42'615.9
2019-Aug-11 02:51N 42°57' E 005°49'2616.3
2019-Aug-11 01:16N 42°43' E 006°19'816.0
2019-Aug-11 00:45N 42°39' E 006°28'416.1
2019-Aug-11 00:31N 42°37' E 006°33'816.2
2019-Aug-11 00:01N 42°32' E 006°42'815.8
2019-Aug-10 23:30N 42°29' E 006°52'815.7
2019-Aug-10 23:00N 42°28' E 007°02'815.3
2019-Aug-10 22:30N 42°25' E 007°12'815.6
2019-Aug-10 22:00N 42°21' E 007°21'815.4
2019-Aug-10 21:31N 42°16' E 007°29'816.0
2019-Aug-10 21:01N 42°12' E 007°38'816.0
2019-Aug-10 20:30N 42°08' E 007°48'815.6
2019-Aug-10 20:00N 42°04' E 007°57'815.4
2019-Aug-10 19:30N 42°01' E 008°06'815.5
2019-Aug-10 19:00N 41°57' E 008°15'815.5
2019-Aug-10 18:30N 41°53' E 008°24'815.3
2019-Aug-10 18:00N 41°49' E 008°33'714.7
2019-Aug-10 17:30N 41°52' E 008°42'4 3.5
2019-Aug-10 16:20N 41°56' E 008°45'0 0.0
2019-Aug-10 15:26N 41°56' E 008°45'0 0.0
2019-Aug-10 14:59N 41°56' E 008°45'0 0.0
2019-Aug-10 13:47N 41°56' E 008°45'0 0.0
2019-Aug-10 13:29N 41°56' E 008°45'0 0.0
2019-Aug-10 12:59N 41°56' E 008°45'0 0.0
2019-Aug-10 12:29N 41°56' E 008°45'0 0.0
2019-Aug-10 11:59N 41°56' E 008°45'0 0.0
2019-Aug-10 11:29N 41°56' E 008°45'0 0.0
2019-Aug-10 10:02N 41°56' E 008°45'0 0.0
2019-Aug-10 09:56N 41°56' E 008°45'0 0.0
2019-Aug-10 09:20N 41°56' E 008°45'  

Dump ship's entire track history